Avenue, Maryland
Current Conditions -  °F | °C
As of 7:23 AM on Monday 24 Nov 2014 (Local Time) from K2W6 Reporting Station
Overcast Overcast  
Wind Chill: 18°   Ceiling: 1600
Heat Index: 18°   Visibility: 10mi
Dew Point: 16°   Wind: 7mph
Humidity: 88%   Direction: 200°SSW
Pressure: 29.73"   Gusts: NA
Location:  38.26°N, 76.77°W
Report Text: K2W6 241223Z AUTO 20006KT 160V220 10SM BKN016 OVC023 18/16 A2973 RMK AO1
Loading
Personal Weather Stations






























Interactive Weather Map New forecast layout! Learn more

10-Day Weather Forecast

Advertisements
Track Severe Weather on mobile